Time;durP1;ratioP1;P1;durP2;ratioP2;P2;SDS_P1;SDS_P2;PMS_P1;PMS_P2;Temp;Humidity;BMP_temperature;BMP_pressure;BME280_temperature;BME280_humidity;BME280_pressure;Samples;Min_cycle;Max_cycle;Signal;HPM_P1;HPM_P2
2023/12/05 00:00:51;;;;;;;;;;;;;;;1.55;100.00;99627.25;4987656;28;19926;-79
2023/12/05 00:03:16;;;;;;;;;;;;;;;1.56;100.00;99622.78;4993438;28;20171;-79
2023/12/05 00:05:41;;;;;;;;;;;;;;;1.54;100.00;99622.88;4993627;28;19928;-79
2023/12/05 00:08:07;;;;;;;;;;;;;;;1.52;100.00;99614.19;4991227;28;19929;-79
2023/12/05 00:10:32;;;;;;;;;;;;;;;1.55;100.00;99614.00;4994021;28;19921;-78
2023/12/05 00:12:58;;;;;;;;;;;;;;;1.58;100.00;99610.31;4992545;28;19972;-79
2023/12/05 00:15:23;;;;;;;;;;;;;;;1.62;100.00;99611.84;4989256;28;19924;-79
2023/12/05 00:17:48;;;;;;;;;;;;;;;1.63;100.00;99621.47;4992578;28;19965;-79
2023/12/05 00:20:13;;;;;;;;;;;;;;;1.64;100.00;99616.06;4987629;28;20380;-79
2023/12/05 00:22:39;;;;;;;;;;;;;;;1.67;100.00;99609.78;5004297;28;20657;-79
2023/12/05 00:25:04;;;;;;;;;;;;;;;1.68;100.00;99608.81;4972989;28;20218;-79
2023/12/05 00:27:29;;;;;;;;;;;;;;;1.71;100.00;99611.28;4990507;28;20354;-78
2023/12/05 00:29:54;;;;;;;;;;;;;;;1.72;100.00;99596.25;4973972;28;20083;-78
2023/12/05 00:32:20;;;;;;;;;;;;;;;1.73;100.00;99605.88;4990498;28;19988;-78
2023/12/05 00:34:45;;;;;;;;;;;;;;;1.69;100.00;99604.38;4976106;28;19964;-77
2023/12/05 00:37:11;;;;;;;;;;;;;;;1.73;100.00;99600.59;4992121;28;20007;-77
2023/12/05 00:39:36;;;;;;;;;;;;;;;1.73;100.00;99592.66;5009913;28;20398;-78
2023/12/05 00:42:01;;;;;;;;;;;;;;;1.78;100.00;99596.72;4994828;28;19959;-78
2023/12/05 00:44:27;;;;;;;;;;;;;;;1.78;100.00;99594.06;4993734;28;19928;-78
2023/12/05 00:46:52;;;;;;;;;;;;;;;1.80;100.00;99594.84;4995408;28;19932;-78
2023/12/05 00:49:17;;;;;;;;;;;;;;;1.76;100.00;99593.31;4994896;28;19929;-77
2023/12/05 00:51:42;;;;;;;;;;;;;;;1.77;100.00;99592.38;5010129;28;19921;-77
2023/12/05 00:54:07;;;;;;;;;;;;;;;1.77;100.00;99587.06;4975409;28;19921;-78
2023/12/05 00:56:33;;;;;;;;;;;;;;;1.79;100.00;99589.66;4992385;28;19921;-78
2023/12/05 00:58:58;;;;;;;;;;;;;;;1.83;100.00;99585.88;4993350;28;20982;-78
2023/12/05 01:01:23;;;;;;;;;;;;;;;1.86;100.00;99577.72;4991806;28;20372;-78
2023/12/05 01:03:51;;;;;;;;;;;;;;;1.86;100.00;99583.00;4974836;28;19928;-78
2023/12/05 01:06:16;;;;;;;;;;;;;;;1.88;100.00;99582.94;4991921;28;20390;-78
2023/12/05 01:08:41;;;;;;;;;;;;;;;1.90;100.00;99576.59;4975020;28;20364;-81
2023/12/05 01:11:08;;;;;;;;;;;;;;;1.89;100.00;99574.88;4993657;28;19956;-78
2023/12/05 01:13:34;;;;;;;;;;;;;;;1.94;100.00;99580.75;4992997;28;19933;-78
2023/12/05 01:15:59;;;;;;;;;;;;;;;1.91;100.00;99578.28;4994424;28;19943;-79
2023/12/05 01:18:27;;;;;;;;;;;;;;;1.91;100.00;99575.63;5009092;28;19975;-78
2023/12/05 01:20:52;;;;;;;;;;;;;;;1.92;100.00;99579.16;4995169;28;20054;-78
2023/12/05 01:23:17;;;;;;;;;;;;;;;1.91;100.00;99575.63;4990998;28;20383;-79
2023/12/05 01:25:42;;;;;;;;;;;;;;;1.94;100.00;99569.31;4994654;28;20041;-78
2023/12/05 01:28:08;;;;;;;;;;;;;;;1.95;100.00;99571.03;4994087;28;19925;-79
2023/12/05 01:30:33;;;;;;;;;;;;;;;1.95;100.00;99565.72;4978137;28;19921;-78
2023/12/05 01:32:58;;;;;;;;;;;;;;;1.92;100.00;99566.75;4992082;28;19926;-78
2023/12/05 01:35:23;;;;;;;;;;;;;;;1.96;100.00;99554.19;4976381;28;19917;-78
2023/12/05 01:37:49;;;;;;;;;;;;;;;1.95;100.00;99553.31;4991423;28;19925;-78
2023/12/05 01:40:14;;;;;;;;;;;;;;;1.94;100.00;99559.56;4976907;28;19972;-78
2023/12/05 01:42:39;;;;;;;;;;;;;;;1.98;100.00;99562.03;4977242;28;19956;-78
2023/12/05 01:45:05;;;;;;;;;;;;;;;1.96;100.00;99559.50;4978514;28;20012;-78
2023/12/05 01:47:30;;;;;;;;;;;;;;;1.97;100.00;99555.91;4993320;28;19972;-78
2023/12/05 01:49:55;;;;;;;;;;;;;;;2.00;100.00;99558.31;4991147;28;20368;-77
2023/12/05 01:52:20;;;;;;;;;;;;;;;2.02;100.00;99551.13;4975160;28;21664;-78
2023/12/05 01:54:45;;;;;;;;;;;;;;;2.10;100.00;99550.69;4977700;28;19921;-80
2023/12/05 01:57:11;;;;;;;;;;;;;;;2.09;100.00;99559.56;4995462;28;19927;-80
2023/12/05 01:59:36;;;;;;;;;;;;;;;2.11;100.00;99555.03;4992112;28;20751;-78
2023/12/05 02:02:02;;;;;;;;;;;;;;;2.07;100.00;99550.88;4991198;28;19929;-78
2023/12/05 02:04:27;;;;;;;;;;;;;;;2.07;100.00;99559.66;5007760;28;20219;-78
2023/12/05 02:06:52;;;;;;;;;;;;;;;2.08;100.00;99555.22;4971571;28;20186;-78
2023/12/05 02:09:19;;;;;;;;;;;;;;;2.11;100.00;99552.38;4989778;28;19930;-79
2023/12/05 02:11:44;;;;;;;;;;;;;;;2.09;100.00;99552.47;4995420;28;19995;-79
2023/12/05 02:14:09;;;;;;;;;;;;;;;2.10;100.00;99540.91;4978992;28;20314;-79
2023/12/05 02:16:39;;;;;;;;;;;;;;;2.14;100.00;99556.63;4995451;28;20387;-79
2023/12/05 02:19:23;;;;;;;;;;;;;;;2.11;100.00;99549.72;4993485;28;19994;-79
2023/12/05 02:21:49;;;;;;;;;;;;;;;2.16;100.00;99552.91;4991010;28;20012;-79
2023/12/05 02:24:25;;;;;;;;;;;;;;;2.17;100.00;99549.31;4993006;28;20441;-79
2023/12/05 02:27:09;;;;;;;;;;;;;;;2.19;100.00;99551.88;4995823;28;19967;-78
2023/12/05 02:29:44;;;;;;;;;;;;;;;2.17;100.00;99546.66;4992244;28;20012;-79
2023/12/05 02:32:09;;;;;;;;;;;;;;;2.18;100.00;99544.88;4992543;28;20180;-78
2023/12/05 02:34:34;;;;;;;;;;;;;;;2.19;100.00;99541.28;4977668;28;19918;-78
2023/12/05 02:37:08;;;;;;;;;;;;;;;2.20;100.00;99546.47;4975811;28;19957;-78
2023/12/05 02:39:35;;;;;;;;;;;;;;;2.19;100.00;99536.84;5006157;28;19921;-78
2023/12/05 02:42:00;;;;;;;;;;;;;;;2.24;100.00;99533.91;4993086;28;19921;-78
2023/12/05 02:44:27;;;;;;;;;;;;;;;2.24;100.00;99531.25;4975904;28;19925;-78
2023/12/05 02:46:52;;;;;;;;;;;;;;;2.25;100.00;99538.25;4992680;28;19922;-78
2023/12/05 02:49:17;;;;;;;;;;;;;;;2.25;100.00;99538.25;4990485;28;19937;-78
2023/12/05 02:51:42;;;;;;;;;;;;;;;2.27;100.00;99533.69;4993375;28;19925;-79
2023/12/05 02:54:08;;;;;;;;;;;;;;;2.28;100.00;99529.25;4991438;28;19921;-78
2023/12/05 02:56:34;;;;;;;;;;;;;;;2.29;100.00;99526.50;4992079;28;19933;-78
2023/12/05 02:58:59;;;;;;;;;;;;;;;2.29;100.00;99526.50;4989325;28;19922;-78
2023/12/05 03:01:24;;;;;;;;;;;;;;;2.30;100.00;99530.84;4990186;28;20305;-78
2023/12/05 03:03:50;;;;;;;;;;;;;;;2.28;100.00;99526.59;4996274;28;20206;-78
2023/12/05 03:06:15;;;;;;;;;;;;;;;2.32;100.00;99523.66;4970983;28;20015;-79
2023/12/05 03:08:40;;;;;;;;;;;;;;;2.33;100.00;99520.06;5008707;28;19960;-78
2023/12/05 03:11:06;;;;;;;;;;;;;;;2.33;100.00;99520.06;5008998;28;20004;-78
2023/12/05 03:13:31;;;;;;;;;;;;;;;2.35;100.00;99517.31;5004952;28;20000;-78
2023/12/05 03:15:56;;;;;;;;;;;;;;;2.32;100.00;99510.41;4998324;28;19922;-78
2023/12/05 03:18:21;;;;;;;;;;;;;;;2.36;100.00;99514.56;4993344;28;19925;-79
2023/12/05 03:20:46;;;;;;;;;;;;;;;2.37;100.00;99510.97;4995990;28;20127;-78
2023/12/05 03:23:11;;;;;;;;;;;;;;;2.37;100.00;99502.19;4982027;28;19975;-78
2023/12/05 03:25:37;;;;;;;;;;;;;;;2.37;100.00;99502.19;4988856;28;20003;-79
2023/12/05 03:28:02;;;;;;;;;;;;;;;2.36;100.00;99505.78;5008888;28;19929;-78
2023/12/05 03:30:27;;;;;;;;;;;;;;;2.38;100.00;99501.22;4993100;28;20274;-78
2023/12/05 03:32:52;;;;;;;;;;;;;;;2.39;100.00;99500.25;4989063;28;20012;-78
2023/12/05 03:35:18;;;;;;;;;;;;;;;2.39;100.00;99497.59;4993099;28;20112;-78
2023/12/05 03:37:43;;;;;;;;;;;;;;;2.39;100.00;99501.13;4994718;28;19955;-78
2023/12/05 03:40:09;;;;;;;;;;;;;;;2.42;100.00;99502.72;4978941;28;19928;-78
2023/12/05 03:42:34;;;;;;;;;;;;;;;2.42;100.00;99492.13;4995347;28;19933;-79
2023/12/05 03:45:00;;;;;;;;;;;;;;;2.46;100.00;99498.06;4991847;28;20569;-77
2023/12/05 03:47:26;;;;;;;;;;;;;;;2.49;100.00;99500.53;5005553;28;20003;-78
2023/12/05 03:49:51;;;;;;;;;;;;;;;2.48;100.00;99498.81;4976390;28;19930;-78
2023/12/05 03:52:16;;;;;;;;;;;;;;;2.51;100.00;99506.59;4968562;28;19914;-79
2023/12/05 03:54:41;;;;;;;;;;;;;;;2.50;100.00;99516.31;4993917;28;19921;-78
2023/12/05 03:57:06;;;;;;;;;;;;;;;2.53;100.00;99510.81;4993733;28;19921;-78
2023/12/05 03:59:32;;;;;;;;;;;;;;;2.53;100.00;99504.66;4991783;28;19965;-78
2023/12/05 04:01:57;;;;;;;;;;;;;;;2.57;100.00;99523.88;4983535;28;20308;-79
2023/12/05 04:04:22;;;;;;;;;;;;;;;2.57;100.00;99516.75;4975186;28;20344;-78
2023/12/05 04:06:47;;;;;;;;;;;;;;;2.59;100.00;99514.03;4989320;28;20402;-78
2023/12/05 04:09:13;;;;;;;;;;;;;;;2.54;100.00;99515.16;4992348;28;20372;-78
2023/12/05 04:11:38;;;;;;;;;;;;;;;2.61;100.00;99514.78;4976667;28;20132;-78
2023/12/05 04:14:04;;;;;;;;;;;;;;;2.62;100.00;99516.47;5008650;28;20357;-78
2023/12/05 04:16:29;;;;;;;;;;;;;;;2.62;100.00;99522.59;4983998;28;19921;-77
2023/12/05 04:18:54;;;;;;;;;;;;;;;2.63;100.00;99519.00;4993327;28;19960;-78
2023/12/05 04:21:20;;;;;;;;;;;;;;;2.63;100.00;99528.78;4998837;28;20292;-77
2023/12/05 04:23:45;;;;;;;;;;;;;;;2.60;100.00;99532.47;4973269;28;20068;-77
2023/12/05 04:26:15;;;;;;;;;;;;;;;2.52;100.00;99532.09;4996829;28;20605;-76
2023/12/05 04:28:40;;;;;;;;;;;;;;;2.53;100.00;99537.31;4981785;28;20410;-77
2023/12/05 04:31:06;;;;;;;;;;;;;;;2.47;100.00;99543.00;4993256;28;20362;-76
2023/12/05 04:33:31;;;;;;;;;;;;;;;2.48;100.00;99544.72;4977861;28;19922;-77
2023/12/05 04:35:56;;;;;;;;;;;;;;;2.48;100.00;99549.16;4980018;28;19918;-77
2023/12/05 04:38:21;;;;;;;;;;;;;;;2.49;100.00;99543.75;4972874;28;19921;-77
2023/12/05 04:40:47;;;;;;;;;;;;;;;2.46;100.00;99559.00;4991520;28;19928;-76
2023/12/05 04:43:12;;;;;;;;;;;;;;;2.46;100.00;99564.31;4994844;28;19968;-76
2023/12/05 04:45:38;;;;;;;;;;;;;;;2.46;100.00;99561.66;4991660;28;20004;-77
2023/12/05 04:48:03;;;;;;;;;;;;;;;2.47;100.00;99558.06;4996728;28;19979;-76
2023/12/05 04:50:28;;;;;;;;;;;;;;;2.44;100.00;99559.09;4980413;28;19925;-77
2023/12/05 04:52:53;;;;;;;;;;;;;;;2.43;100.00;99564.50;4989548;28;20519;-77
2023/12/05 04:55:19;;;;;;;;;;;;;;;2.40;100.00;99565.53;4990341;28;20395;-77
2023/12/05 04:57:44;;;;;;;;;;;;;;;2.40;100.00;99565.53;4990946;28;20770;-80
2023/12/05 05:00:12;;;;;;;;;;;;;;;2.44;100.00;99572.34;4986994;28;19914;-77
2023/12/05 05:02:38;;;;;;;;;;;;;;;2.40;100.00;99578.78;4993987;28;20538;-76
2023/12/05 05:05:03;;;;;;;;;;;;;;;2.38;100.00;99578.91;4979011;28;19929;-77
2023/12/05 05:07:28;;;;;;;;;;;;;;;2.36;100.00;99586.09;4995969;28;20256;-77
2023/12/05 05:09:53;;;;;;;;;;;;;;;2.32;100.00;99576.63;4993004;28;19926;-77
2023/12/05 05:12:19;;;;;;;;;;;;;;;2.32;100.00;99584.56;4993294;28;19933;-77
2023/12/05 05:14:44;;;;;;;;;;;;;;;2.30;100.00;99589.13;4993949;28;20348;-77
2023/12/05 05:17:09;;;;;;;;;;;;;;;2.34;100.00;99595.09;4996315;28;19931;-78
2023/12/05 05:19:34;;;;;;;;;;;;;;;2.28;100.00;99587.53;4976976;28;19922;-78
2023/12/05 05:21:59;;;;;;;;;;;;;;;2.25;100.00;99596.53;4995671;28;19925;-77
2023/12/05 05:24:25;;;;;;;;;;;;;;;2.25;100.00;99591.22;4995765;28;20325;-77
2023/12/05 05:26:50;;;;;;;;;;;;;;;2.13;100.00;99566.34;4995170;28;20724;-79
2023/12/05 05:29:15;;;;;;;;;;;;;;;2.29;100.00;99589.22;4993999;28;19976;-77
2023/12/05 05:31:40;;;;;;;;;;;;;;;2.29;100.00;99598.00;4993407;28;20368;-77
2023/12/05 05:34:05;;;;;;;;;;;;;;;2.27;100.00;99596.41;4994704;28;20257;-77
2023/12/05 05:36:31;;;;;;;;;;;;;;;2.28;100.00;99606.06;4993733;28;20384;-77
2023/12/05 05:38:56;;;;;;;;;;;;;;;2.29;100.00;99605.13;4990760;28;20710;-77
2023/12/05 05:41:22;;;;;;;;;;;;;;;2.23;100.00;99601.91;4997060;28;19925;-77
2023/12/05 05:43:47;;;;;;;;;;;;;;;2.25;100.00;99605.31;4994591;28;19922;-77
2023/12/05 05:46:12;;;;;;;;;;;;;;;2.27;100.00;99605.19;4990364;28;19921;-77
2023/12/05 05:48:37;;;;;;;;;;;;;;;2.28;100.00;99608.72;4992226;28;20383;-77
2023/12/05 05:51:03;;;;;;;;;;;;;;;2.27;100.00;99607.84;4990646;28;20355;-76
2023/12/05 05:53:28;;;;;;;;;;;;;;;2.27;100.00;99607.84;4990514;28;20291;-76
2023/12/05 05:55:53;;;;;;;;;;;;;;;2.18;100.00;99603.16;4989565;28;20392;-76
2023/12/05 05:58:19;;;;;;;;;;;;;;;2.20;100.00;99617.97;4991468;28;20018;-76
2023/12/05 06:00:44;;;;;;;;;;;;;;;2.21;100.00;99619.69;4991997;28;20007;-76
2023/12/05 06:03:09;;;;;;;;;;;;;;;2.24;100.00;99621.31;4995231;28;19921;-76
2023/12/05 06:05:35;;;;;;;;;;;;;;;2.21;100.00;99626.78;4988600;28;19917;-76
2023/12/05 06:08:00;;;;;;;;;;;;;;;2.22;100.00;99620.56;4986913;28;19925;-76
2023/12/05 06:10:27;;;;;;;;;;;;;;;2.19;100.00;99629.53;4997824;28;20205;-76
2023/12/05 06:12:52;;;;;;;;;;;;;;;2.16;100.00;99624.41;4987284;28;19928;-76
2023/12/05 06:15:17;;;;;;;;;;;;;;;2.12;100.00;99630.84;4978863;28;19921;-76
2023/12/05 06:17:42;;;;;;;;;;;;;;;2.16;100.00;99635.00;4987504;28;19976;-77
2023/12/05 06:20:08;;;;;;;;;;;;;;;2.15;100.00;99633.31;4992995;28;19928;-76
2023/12/05 06:22:33;;;;;;;;;;;;;;;2.16;100.00;99636.81;4998107;28;19983;-76
2023/12/05 06:24:59;;;;;;;;;;;;;;;2.11;100.00;99634.47;4993179;28;19960;-76
2023/12/05 06:27:24;;;;;;;;;;;;;;;2.08;100.00;99639.94;4978733;28;19928;-77
2023/12/05 06:29:50;;;;;;;;;;;;;;;2.09;100.00;99641.66;4997406;28;20371;-76
2023/12/05 06:32:15;;;;;;;;;;;;;;;2.12;100.00;99648.53;4985559;28;19967;-77
2023/12/05 06:34:40;;;;;;;;;;;;;;;2.06;100.00;99647.97;4989414;28;19953;-76
2023/12/05 06:37:05;;;;;;;;;;;;;;;2.11;100.00;99647.72;4991736;28;20092;-76
2023/12/05 06:39:30;;;;;;;;;;;;;;;2.09;100.00;99655.72;4991836;28;19928;-76
2023/12/05 06:41:56;;;;;;;;;;;;;;;2.09;100.00;99653.06;4990916;28;19928;-76
2023/12/05 06:44:21;;;;;;;;;;;;;;;2.12;100.00;99665.25;4993719;28;19922;-76
2023/12/05 06:46:46;;;;;;;;;;;;;;;2.10;100.00;99664.53;4972837;28;19925;-76
2023/12/05 06:49:11;;;;;;;;;;;;;;;2.12;100.00;99667.91;4994488;28;19932;-76
2023/12/05 06:51:37;;;;;;;;;;;;;;;2.06;100.00;99669.16;4992261;28;19928;-76
2023/12/05 06:54:03;;;;;;;;;;;;;;;2.03;100.00;99674.63;4993543;28;19927;-76
2023/12/05 06:56:28;;;;;;;;;;;;;;;2.05;100.00;99675.38;4988058;28;19922;-76
2023/12/05 06:58:54;;;;;;;;;;;;;;;1.98;100.00;99679.38;4980229;28;19921;-78
2023/12/05 07:01:19;;;;;;;;;;;;;;;1.98;100.00;99686.47;5001935;28;20024;-76
2023/12/05 07:03:44;;;;;;;;;;;;;;;1.91;100.00;99683.34;4972577;28;19927;-76
2023/12/05 07:06:09;;;;;;;;;;;;;;;1.93;100.00;99689.38;5000864;28;20031;-75
2023/12/05 07:08:35;;;;;;;;;;;;;;;1.92;100.00;99692.97;4987260;28;20008;-75
2023/12/05 07:11:01;;;;;;;;;;;;;;;1.82;100.00;99687.38;4994926;28;19921;-75
2023/12/05 07:13:26;;;;;;;;;;;;;;;1.82;100.00;99697.13;4994506;28;19975;-77
2023/12/05 07:15:51;;;;;;;;;;;;;;;1.81;100.00;99698.91;4990020;28;19951;-76
2023/12/05 07:18:17;;;;;;;;;;;;;;;1.85;100.00;99703.09;4985760;28;19921;-75
2023/12/05 07:20:43;;;;;;;;;;;;;;;1.82;100.00;99707.69;4994969;28;20043;-76
2023/12/05 07:23:08;;;;;;;;;;;;;;;1.81;100.00;99701.56;4991822;28;20486;-76
2023/12/05 07:25:33;;;;;;;;;;;;;;;1.83;100.00;99710.28;4985638;28;20350;-76
2023/12/05 07:27:58;;;;;;;;;;;;;;;1.78;100.00;99714.97;4984601;28;20319;-75
2023/12/05 07:30:24;;;;;;;;;;;;;;;1.76;100.00;99709.75;4971153;28;20277;-76
2023/12/05 07:32:49;;;;;;;;;;;;;;;1.76;100.00;99717.69;4976483;28;20391;-78
2023/12/05 07:35:14;;;;;;;;;;;;;;;1.77;100.00;99723.88;4995478;28;19918;-76
2023/12/05 07:37:39;;;;;;;;;;;;;;;1.77;100.00;99721.22;4990027;28;19971;-76
2023/12/05 07:40:06;;;;;;;;;;;;;;;1.79;100.00;99727.28;4988161;28;20004;-76
2023/12/05 07:42:31;;;;;;;;;;;;;;;1.72;100.00;99733.84;4988090;28;19921;-75
2023/12/05 07:44:56;;;;;;;;;;;;;;;1.73;100.00;99738.22;5001518;28;19921;-77
2023/12/05 07:47:23;;;;;;;;;;;;;;;1.71;100.00;99740.97;4978496;28;20000;-75
2023/12/05 07:49:48;;;;;;;;;;;;;;;1.75;100.00;99741.63;4990128;28;19968;-75
2023/12/05 07:52:14;;;;;;;;;;;;;;;1.76;100.00;99745.97;4984423;28;20028;-75
2023/12/05 07:54:39;;;;;;;;;;;;;;;1.73;100.00;99746.16;4997669;28;19921;-76
2023/12/05 07:57:04;;;;;;;;;;;;;;;1.75;100.00;99739.81;4988064;28;20380;-76
2023/12/05 07:59:29;;;;;;;;;;;;;;;1.72;100.00;99753.22;5005416;28;19960;-75
2023/12/05 08:01:55;;;;;;;;;;;;;;;1.75;100.00;99753.03;5005864;28;20171;-76
2023/12/05 08:04:20;;;;;;;;;;;;;;;1.77;100.00;99758.25;4994267;28;20879;-75
2023/12/05 08:06:45;;;;;;;;;;;;;;;1.77;100.00;99761.75;4994493;28;19940;-76
2023/12/05 08:09:10;;;;;;;;;;;;;;;1.79;100.00;99764.31;4976682;28;19930;-76
2023/12/05 08:11:35;;;;;;;;;;;;;;;1.74;100.00;99763.75;4991140;28;19921;-78
2023/12/05 08:14:01;;;;;;;;;;;;;;;1.81;100.00;99767.75;5004217;28;19953;-76
2023/12/05 08:16:26;;;;;;;;;;;;;;;1.78;100.00;99771.41;4987308;28;20080;-76
2023/12/05 08:18:51;;;;;;;;;;;;;;;1.80;100.00;99772.16;4990724;28;20440;-76
2023/12/05 08:21:17;;;;;;;;;;;;;;;1.79;100.00;99774.91;4993536;28;19969;-79
2023/12/05 08:23:42;;;;;;;;;;;;;;;1.80;100.00;99777.47;4989648;28;19969;-77
2023/12/05 08:26:07;;;;;;;;;;;;;;;1.85;100.00;99777.22;4991796;28;19960;-76
2023/12/05 08:28:32;;;;;;;;;;;;;;;1.84;100.00;99780.78;4981160;28;20538;-77
2023/12/05 08:30:57;;;;;;;;;;;;;;;1.85;100.00;99787.78;4972107;28;20516;-76
2023/12/05 08:33:23;;;;;;;;;;;;;;;1.85;100.00;99792.22;4986761;28;19938;-79
2023/12/05 08:35:48;;;;;;;;;;;;;;;1.85;100.00;99797.50;4989335;28;19921;-76
2023/12/05 08:38:13;;;;;;;;;;;;;;;1.86;100.00;99804.50;4986260;28;19965;-78
2023/12/05 08:40:38;;;;;;;;;;;;;;;1.89;100.00;99805.19;4991763;28;19967;-76
2023/12/05 08:43:04;;;;;;;;;;;;;;;1.88;100.00;99800.81;4976405;28;20330;-76
2023/12/05 08:45:29;;;;;;;;;;;;;;;1.92;100.00;99809.47;4989821;28;19921;-76
2023/12/05 08:47:55;;;;;;;;;;;;;;;1.93;100.00;99809.34;5009222;28;19979;-76
2023/12/05 08:50:20;;;;;;;;;;;;;;;1.92;100.00;99817.41;4987748;28;20452;-76
2023/12/05 08:52:45;;;;;;;;;;;;;;;1.94;100.00;99815.53;5009272;28;19917;-76
2023/12/05 08:55:11;;;;;;;;;;;;;;;1.97;100.00;99812.69;4994858;28;19925;-76
2023/12/05 08:57:37;;;;;;;;;;;;;;;2.00;100.00;99820.44;5002754;28;19913;-76
2023/12/05 09:00:04;;;;;;;;;;;;;;;2.03;100.00;99816.78;4992459;28;20040;-76
2023/12/05 09:02:29;;;;;;;;;;;;;;;2.01;100.00;99819.50;4978560;28;19944;-77
2023/12/05 09:04:56;;;;;;;;;;;;;;;1.97;100.00;99823.28;4990493;28;20297;-76
2023/12/05 09:07:21;;;;;;;;;;;;;;;2.01;100.00;99834.53;4995623;28;20009;-76
2023/12/05 09:09:46;;;;;;;;;;;;;;;1.98;100.00;99835.59;4972346;28;19953;-77
2023/12/05 09:12:11;;;;;;;;;;;;;;;1.99;100.00;99836.41;4975665;28;19921;-76
2023/12/05 09:14:36;;;;;;;;;;;;;;;1.99;100.00;99834.63;4995762;28;19987;-76
2023/12/05 09:17:03;;;;;;;;;;;;;;;2.03;100.00;99832.66;5005476;28;20285;-77
2023/12/05 09:19:28;;;;;;;;;;;;;;;2.04;100.00;99840.50;4996717;28;20423;-76
2023/12/05 09:21:53;;;;;;;;;;;;;;;2.07;100.00;99845.63;5012751;28;19991;-76
2023/12/05 09:24:18;;;;;;;;;;;;;;;2.03;100.00;99849.38;4989461;28;19925;-76
2023/12/05 09:26:43;;;;;;;;;;;;;;;2.06;100.00;99854.50;5011275;28;19944;-75
2023/12/05 09:29:09;;;;;;;;;;;;;;;2.10;100.00;99861.34;4993728;28;20236;-75
2023/12/05 09:31:34;;;;;;;;;;;;;;;2.08;100.00;99865.88;4989359;28;21134;-76
2023/12/05 09:33:59;;;;;;;;;;;;;;;2.06;100.00;99859.81;4990570;28;20268;-75
2023/12/05 09:36:24;;;;;;;;;;;;;;;2.02;100.00;99876.81;4971639;28;20425;-76
2023/12/05 09:38:50;;;;;;;;;;;;;;;2.05;100.00;99871.34;4971460;28;19926;-76
2023/12/05 09:41:15;;;;;;;;;;;;;;;2.05;100.00;99870.50;4991223;28;19921;-76
2023/12/05 09:43:40;;;;;;;;;;;;;;;2.09;100.00;99875.50;5005274;28;19929;-76
2023/12/05 09:46:08;;;;;;;;;;;;;;;2.10;100.00;99871.94;4991706;28;19917;-75
2023/12/05 09:48:37;;;;;;;;;;;;;;;2.13;100.00;99870.88;4980316;28;19929;-75
2023/12/05 09:51:02;;;;;;;;;;;;;;;2.12;100.00;99871.81;4994828;28;19944;-75
2023/12/05 09:53:27;;;;;;;;;;;;;;;2.21;100.00;99873.94;4992029;28;20368;-76
2023/12/05 09:55:53;;;;;;;;;;;;;;;2.23;100.00;99873.88;5011359;28;20348;-76
2023/12/05 09:58:18;;;;;;;;;;;;;;;2.27;100.00;99878.03;4995974;28;20505;-76
2023/12/05 10:00:44;;;;;;;;;;;;;;;2.25;100.00;99879.94;4995964;28;19928;-77
2023/12/05 10:03:09;;;;;;;;;;;;;;;2.22;100.00;99880.94;5004843;28;20391;-76
2023/12/05 10:05:35;;;;;;;;;;;;;;;2.32;100.00;99880.41;4988482;28;19922;-76
2023/12/05 10:08:00;;;;;;;;;;;;;;;2.39;100.00;99879.97;4983730;28;19936;-76
2023/12/05 10:10:26;;;;;;;;;;;;;;;2.38;100.00;99882.72;4969364;28;20402;-78
2023/12/05 10:12:51;;;;;;;;;;;;;;;2.42;100.00;99880.72;5007774;28;20054;-77
2023/12/05 10:15:16;;;;;;;;;;;;;;;2.47;100.00;99892.75;4968992;28;20352;-77
2023/12/05 10:17:42;;;;;;;;;;;;;;;2.53;100.00;99892.41;4991935;28;20440;-78
2023/12/05 10:20:07;;;;;;;;;;;;;;;2.56;100.00;99894.00;4990071;28;20392;-79
2023/12/05 10:22:33;;;;;;;;;;;;;;;2.57;100.00;99895.69;4992983;28;19985;-76
2023/12/05 10:24:58;;;;;;;;;;;;;;;2.54;100.00;99899.41;4974307;28;19925;-77
2023/12/05 10:27:23;;;;;;;;;;;;;;;2.63;100.00;99902.47;4992101;28;19922;-76
2023/12/05 10:29:48;;;;;;;;;;;;;;;2.66;100.00;99913.72;4974506;28;19975;-76
2023/12/05 10:32:13;;;;;;;;;;;;;;;2.68;100.00;99919.78;4989202;28;19921;-77
2023/12/05 10:34:50;;;;;;;;;;;;;;;2.66;100.00;99921.66;5006636;28;20229;-76
2023/12/05 10:37:25;;;;;;;;;;;;;;;2.61;100.00;99920.25;4975470;28;19921;-76
2023/12/05 10:39:51;;;;;;;;;;;;;;;2.72;100.00;99930.22;4991562;28;19972;-76
2023/12/05 10:42:16;;;;;;;;;;;;;;;2.72;100.00;99928.41;4992680;28;20391;-76
2023/12/05 10:44:42;;;;;;;;;;;;;;;2.58;100.00;99937.16;4991935;28;20423;-78
2023/12/05 10:47:07;;;;;;;;;;;;;;;2.53;100.00;99945.41;4989116;28;19918;-76
2023/12/05 10:49:34;;;;;;;;;;;;;;;2.54;100.00;99946.22;4994757;28;19926;-77
2023/12/05 10:51:59;;;;;;;;;;;;;;;2.49;100.00;99959.75;5003322;28;19998;-77
2023/12/05 10:54:25;;;;;;;;;;;;;;;2.45;100.00;99957.38;4995172;28;19928;-76
2023/12/05 10:56:57;;;;;;;;;;;;;;;2.44;100.00;99958.34;4975191;28;19933;-76
2023/12/05 10:59:23;;;;;;;;;;;;;;;2.47;100.00;99955.50;5009749;28;20418;-76
2023/12/05 11:01:49;;;;;;;;;;;;;;;2.44;100.00;99963.63;4991488;28;19963;-77
2023/12/05 11:04:14;;;;;;;;;;;;;;;2.42;100.00;99966.34;4988233;28;19930;-76
2023/12/05 11:06:39;;;;;;;;;;;;;;;2.47;100.00;99966.94;4995987;28;20334;-80
2023/12/05 11:09:04;;;;;;;;;;;;;;;2.44;100.00;99974.22;4990032;28;19941;-76
2023/12/05 11:11:29;;;;;;;;;;;;;;;2.36;100.00;99978.16;4978983;28;19968;-76
2023/12/05 11:13:55;;;;;;;;;;;;;;;2.35;100.00;99979.09;5004812;28;19921;-76
2023/12/05 11:16:20;;;;;;;;;;;;;;;2.38;100.00;99988.69;4991714;28;20926;-76
2023/12/05 11:18:46;;;;;;;;;;;;;;;2.20;100.00;99962.28;4992276;28;20017;-76
2023/12/05 11:21:29;;;;;;;;;;;;;;;2.40;100.00;99989.44;4988515;28;20290;-77
2023/12/05 11:23:55;;;;;;;;;;;;;;;2.35;100.00;99995.00;4994455;28;20318;-76
2023/12/05 11:26:22;;;;;;;;;;;;;;;2.33;100.00;99996.03;4996498;28;20414;-76
2023/12/05 11:28:50;;;;;;;;;;;;;;;2.28;100.00;100000.75;4994477;28;19925;-76
2023/12/05 11:31:32;;;;;;;;;;;;;;;2.22;100.00;100013.38;4994483;28;19975;-76
2023/12/05 11:34:16;;;;;;;;;;;;;;;2.20;100.00;100006.47;4998508;28;19944;-76
2023/12/05 11:36:59;;;;;;;;;;;;;;;2.22;100.00;100015.19;4989180;28;19933;-76
2023/12/05 11:39:25;;;;;;;;;;;;;;;2.23;100.00;100014.25;4992933;28;19960;-76
2023/12/05 11:42:07;;;;;;;;;;;;;;;2.23;100.00;100011.59;4992445;28;20973;-76
2023/12/05 11:44:36;;;;;;;;;;;;;;;2.20;100.00;100011.78;4988984;28;19921;-76
2023/12/05 11:47:03;;;;;;;;;;;;;;;2.20;100.00;100012.63;4994290;28;20389;-76
2023/12/05 11:49:38;;;;;;;;;;;;;;;2.23;100.00;100019.56;4991286;28;19926;-77
2023/12/05 11:52:08;;;;;;;;;;;;;;;2.21;100.00;100013.47;4996365;28;20397;-76
2023/12/05 11:54:34;;;;;;;;;;;;;;;2.23;100.00;100020.41;4994362;28;19918;-76
2023/12/05 11:57:15;;;;;;;;;;;;;;;2.24;100.00;100023.91;5003353;28;19943;-76
2023/12/05 11:59:47;;;;;;;;;;;;;;;2.22;100.00;100036.38;4999009;28;20367;-76
2023/12/05 12:02:23;;;;;;;;;;;;;;;2.20;100.00;100025.84;4987238;28;20288;-76
2023/12/05 12:04:49;;;;;;;;;;;;;;;2.19;100.00;100039.19;4988163;28;19922;-77
2023/12/05 12:07:14;;;;;;;;;;;;;;;2.16;100.00;100039.38;4974521;28;19928;-76
2023/12/05 12:09:40;;;;;;;;;;;;;;;2.09;100.00;100042.34;5003657;28;20313;-76
2023/12/05 12:12:06;;;;;;;;;;;;;;;2.11;100.00;100050.22;4992057;28;19917;-76
2023/12/05 12:14:31;;;;;;;;;;;;;;;2.07;100.00;100044.22;4999493;28;20020;-76
2023/12/05 12:16:57;;;;;;;;;;;;;;;2.11;100.00;100044.94;4991697;28;20320;-76
2023/12/05 12:19:22;;;;;;;;;;;;;;;2.12;100.00;100056.38;4970326;28;20013;-76
2023/12/05 12:21:48;;;;;;;;;;;;;;;2.20;100.00;100057.66;4993224;28;19928;-76
2023/12/05 12:24:20;;;;;;;;;;;;;;;2.15;100.00;100064.16;5004220;28;19929;-76
2023/12/05 12:26:53;;;;;;;;;;;;;;;2.14;100.00;100065.09;4995785;28;19986;-76
2023/12/05 12:29:18;;;;;;;;;;;;;;;2.17;100.00;100067.56;4992628;28;19925;-76
2023/12/05 12:31:43;;;;;;;;;;;;;;;2.10;100.00;100067.06;4996498;28;19928;-76
2023/12/05 12:34:19;;;;;;;;;;;;;;;2.11;100.00;100063.47;4998024;28;19944;-76
2023/12/05 12:36:44;;;;;;;;;;;;;;;2.05;100.00;100077.88;4989826;28;19969;-76
2023/12/05 12:39:10;;;;;;;;;;;;;;;2.05;100.00;100067.28;4989638;28;19961;-76